Time;durP1;ratioP1;P1;durP2;ratioP2;P2;SDS_P1;SDS_P2;PMS_P1;PMS_P2;Temp;Humidity;BMP_temperature;BMP_pressure;BME280_temperature;BME280_humidity;BME280_pressure;Samples;Min_cycle;Max_cycle;Signal;HPM_P1;HPM_P2
2023/01/30 00:03:13;;;;;;;28.17;11.45;;;;;;;2.56;63.79;100929.94;10246095;28;20071;-62
2023/01/30 00:08:15;;;;;;;26.02;11.85;;;;;;;2.60;64.06;100906.69;10242776;28;20341;-62
2023/01/30 00:13:16;;;;;;;30.92;12.88;;;;;;;2.57;63.86;100900.66;10239911;28;20055;-62
2023/01/30 00:18:18;;;;;;;27.80;12.23;;;;;;;2.61;64.24;100906.59;10247578;28;20056;-62
2023/01/30 00:23:19;;;;;;;28.50;12.93;;;;;;;2.65;64.38;100897.44;10230465;28;20138;-62
2023/01/30 00:28:21;;;;;;;26.92;13.07;;;;;;;2.69;64.23;100872.38;10241188;28;20499;-63
2023/01/30 00:33:24;;;;;;;26.15;11.68;;;;;;;2.68;64.48;100830.84;10244006;28;20146;-63
2023/01/30 00:38:25;;;;;;;22.02;11.77;;;;;;;2.67;64.19;100833.63;10247284;28;20111;-62
2023/01/30 00:48:47;;;;;;;23.38;11.98;;;;;;;2.56;64.88;100840.56;10239580;28;20067;-62
2023/01/30 00:53:49;;;;;;;26.35;12.57;;;;;;;2.54;64.92;100839.81;10239006;28;20137;-62
2023/01/30 00:58:50;;;;;;;25.45;11.55;;;;;;;2.56;65.59;100835.25;10241734;28;20058;-62
2023/01/30 01:03:52;;;;;;;27.67;12.05;;;;;;;2.67;65.31;100820.38;10242250;28;20154;-62
2023/01/30 01:08:53;;;;;;;26.85;11.32;;;;;;;2.67;65.13;100826.50;10245016;28;20125;-62
2023/01/30 01:13:57;;;;;;;29.98;12.07;;;;;;;2.68;66.22;100812.28;10241174;28;20079;-62
2023/01/30 01:18:59;;;;;;;27.73;11.35;;;;;;;2.73;66.21;100801.34;10236917;28;20098;-62
2023/01/30 01:24:00;;;;;;;26.05;12.13;;;;;;;2.81;65.90;100767.09;10238489;28;20055;-62
2023/01/30 01:29:02;;;;;;;29.75;12.55;;;;;;;2.87;65.99;100782.56;10239687;28;20059;-62
2023/01/30 01:34:03;;;;;;;27.08;10.40;;;;;;;2.95;66.68;100804.06;10243562;28;20156;-62
2023/01/30 01:39:05;;;;;;;32.58;10.60;;;;;;;3.02;66.52;100791.19;10243606;28;20067;-61
2023/01/30 01:44:12;;;;;;;26.70;11.30;;;;;;;3.08;65.98;100782.75;10238513;28;20047;-62
2023/01/30 01:49:22;;;;;;;28.20;12.13;;;;;;;3.03;66.35;100765.47;10239855;28;20755;-62
2023/01/30 01:54:35;;;;;;;29.08;12.40;;;;;;;3.04;66.49;100753.88;10240706;28;20051;-61
2023/01/30 01:59:48;;;;;;;27.65;12.38;;;;;;;3.08;67.00;100753.53;10238435;28;20055;-61
2023/01/30 02:05:01;;;;;;;28.48;12.18;;;;;;;3.05;66.80;100739.63;10240254;28;20054;-61
2023/01/30 02:10:05;;;;;;;24.17;11.15;;;;;;;3.17;66.80;100718.28;10239432;28;20079;-61
2023/01/30 02:15:07;;;;;;;29.55;12.57;;;;;;;3.12;66.68;100720.47;10240009;28;20051;-62
2023/01/30 02:20:41;;;;;;;31.23;12.38;;;;;;;3.14;67.18;100738.91;10236782;28;20503;-61
2023/01/30 02:26:24;;;;;;;26.70;10.35;;;;;;;3.18;66.99;100729.78;10238557;28;20082;-62
2023/01/30 02:31:47;;;;;;;26.75;11.65;;;;;;;3.14;66.75;100713.22;10177125;28;20063;-62
2023/01/30 02:37:08;;;;;;;26.70;12.70;;;;;;;3.21;67.01;100723.38;10237700;28;20070;-61
2023/01/30 02:42:48;;;;;;;29.77;12.70;;;;;;;3.18;67.15;100709.34;10227634;28;20503;-61
2023/01/30 02:48:02;;;;;;;28.23;10.40;;;;;;;3.23;67.17;100711.66;10234808;28;20063;-62
2023/01/30 02:53:05;;;;;;;25.25;11.63;;;;;;;3.25;66.64;100720.34;10244625;28;20545;-62
2023/01/30 02:58:07;;;;;;;24.60;11.60;;;;;;;3.25;67.46;100725.66;10245130;28;20055;-62
2023/01/30 03:03:16;;;;;;;24.38;11.30;;;;;;;3.22;67.29;100728.56;10244630;28;20146;-61
2023/01/30 03:08:29;;;;;;;22.08;10.70;;;;;;;3.31;66.65;100716.34;10240815;28;20070;-62
2023/01/30 03:13:47;;;;;;;28.27;12.52;;;;;;;3.27;67.14;100718.41;10241871;28;20058;-62
2023/01/30 03:18:48;;;;;;;15.27;7.55;;;;;;;3.35;66.60;100707.19;10242492;28;20098;-62
2023/01/30 03:23:49;;;;;;;22.77;9.88;;;;;;;3.44;66.63;100695.84;10244945;28;20055;-62
2023/01/30 03:28:52;;;;;;;23.45;10.15;;;;;;;3.42;66.67;100678.34;10243198;28;20506;-62
2023/01/30 03:33:53;;;;;;;26.25;9.43;;;;;;;3.42;67.23;100687.16;10243956;28;20125;-62
2023/01/30 03:38:54;;;;;;;25.85;10.45;;;;;;;3.38;67.57;100662.63;10242740;28;20067;-62
2023/01/30 03:43:56;;;;;;;26.63;11.13;;;;;;;3.37;67.36;100658.25;10240642;28;20482;-62
2023/01/30 03:48:57;;;;;;;23.15;9.35;;;;;;;3.46;67.27;100650.53;10240539;28;20463;-62
2023/01/30 03:53:59;;;;;;;25.58;12.32;;;;;;;3.44;67.22;100653.31;10244926;28;20078;-62
2023/01/30 03:59:00;;;;;;;27.27;11.77;;;;;;;3.42;67.14;100627.84;10243928;28;20055;-62
2023/01/30 04:04:01;;;;;;;27.98;11.98;;;;;;;3.40;67.21;100630.63;10241131;28;20577;-62
2023/01/30 04:09:03;;;;;;;26.30;10.85;;;;;;;3.49;67.51;100629.03;10244373;28;20135;-62
2023/01/30 04:14:04;;;;;;;29.13;11.77;;;;;;;3.56;67.30;100614.28;10242345;28;20087;-62
2023/01/30 04:19:06;;;;;;;25.90;11.35;;;;;;;3.57;66.94;100613.28;10240831;28;20550;-62
2023/01/30 04:24:07;;;;;;;23.58;9.90;;;;;;;3.54;67.22;100611.75;10243255;28;20141;-62
2023/01/30 04:29:09;;;;;;;27.13;10.85;;;;;;;3.55;67.17;100583.34;10241458;28;20097;-62
2023/01/30 04:34:10;;;;;;;25.90;12.18;;;;;;;3.48;67.60;100585.66;10243125;28;20423;-61
2023/01/30 04:39:11;;;;;;;28.10;12.38;;;;;;;3.46;68.04;100576.13;10243011;28;20075;-61
2023/01/30 04:44:13;;;;;;;32.42;11.98;;;;;;;3.33;68.43;100582.41;10241948;28;20059;-61
2023/01/30 04:49:14;;;;;;;30.17;12.82;;;;;;;3.36;68.58;100552.13;10241303;28;20070;-61
2023/01/30 04:54:15;;;;;;;31.77;13.77;;;;;;;3.36;68.47;100560.09;10239682;28;20233;-62
2023/01/30 04:59:17;;;;;;;34.83;13.75;;;;;;;3.37;69.00;100559.94;10237483;28;20074;-61
2023/01/30 05:04:18;;;;;;;33.67;15.68;;;;;;;3.43;68.83;100550.63;10238035;28;20068;-61
2023/01/30 05:09:19;;;;;;;30.20;12.65;;;;;;;3.48;69.06;100539.66;10240949;28;20089;-61
2023/01/30 05:14:21;;;;;;;25.15;12.77;;;;;;;3.53;68.95;100537.44;10240434;28;20085;-61
2023/01/30 05:19:22;;;;;;;32.53;12.85;;;;;;;3.56;68.62;100547.84;10235545;28;20059;-61
2023/01/30 05:24:24;;;;;;;33.83;12.98;;;;;;;3.58;68.73;100514.84;10239101;28;20475;-61
2023/01/30 05:29:25;;;;;;;28.67;12.00;;;;;;;3.62;68.57;100525.22;10241909;28;20047;-61
2023/01/30 05:34:26;;;;;;;33.20;13.73;;;;;;;3.63;68.87;100519.75;10230978;28;20589;-61
2023/01/30 05:39:28;;;;;;;31.35;14.23;;;;;;;3.49;69.48;100502.31;10237479;28;20102;-61
2023/01/30 05:44:30;;;;;;;29.40;13.35;;;;;;;3.46;69.85;100499.91;10239451;28;20081;-61
2023/01/30 05:49:31;;;;;;;27.75;12.32;;;;;;;3.46;69.72;100493.75;10239050;28;20138;-61
2023/01/30 05:54:34;;;;;;;31.13;14.48;;;;;;;3.45;70.21;100494.72;10236906;28;20075;-61
2023/01/30 05:59:35;;;;;;;32.35;13.63;;;;;;;3.38;70.41;100476.63;10237922;28;20138;-60
2023/01/30 06:04:36;;;;;;;26.88;12.13;;;;;;;3.38;70.43;100487.25;10233820;28;20063;-60
2023/01/30 06:09:38;;;;;;;28.50;13.05;;;;;;;3.35;71.15;100479.53;10239321;28;20492;-60
2023/01/30 06:14:39;;;;;;;25.88;10.80;;;;;;;3.40;71.01;100468.53;10221537;28;20707;-61
2023/01/30 06:19:41;;;;;;;27.20;11.88;;;;;;;3.51;70.92;100455.19;10244175;28;20079;-60
2023/01/30 06:24:42;;;;;;;26.00;10.88;;;;;;;3.58;71.08;100436.94;10245334;28;20141;-60
2023/01/30 06:29:43;;;;;;;29.65;12.02;;;;;;;3.52;71.13;100464.03;10239542;28;20106;-60
2023/01/30 06:34:45;;;;;;;26.95;10.55;;;;;;;3.53;71.38;100471.84;10244319;28;20074;-60
2023/01/30 06:39:46;;;;;;;27.50;11.32;;;;;;;3.55;71.31;100482.34;10241276;28;20644;-60
2023/01/30 06:44:47;;;;;;;31.10;12.13;;;;;;;3.52;71.52;100491.44;10243621;28;20142;-60
2023/01/30 06:49:49;;;;;;;23.75;11.60;;;;;;;3.56;71.82;100497.34;10240649;28;20071;-60
2023/01/30 06:54:50;;;;;;;17.63;8.27;;;;;;;3.60;71.75;100504.09;10243336;28;20114;-60
2023/01/30 06:59:52;;;;;;;22.58;10.77;;;;;;;3.66;71.80;100527.50;10241700;28;20427;-60
2023/01/30 07:04:53;;;;;;;20.50;9.77;;;;;;;3.72;71.57;100508.38;10240857;28;20121;-62
2023/01/30 07:09:54;;;;;;;20.50;8.85;;;;;;;3.76;71.32;100503.66;10237591;28;20585;-63
2023/01/30 07:15:08;;;;;;;18.45;7.97;;;;;;;3.82;71.35;100534.22;10242058;28;20126;-63
2023/01/30 07:20:10;;;;;;;20.30;9.05;;;;;;;3.76;71.35;100532.91;10243707;28;20082;-63
2023/01/30 07:25:12;;;;;;;21.23;10.35;;;;;;;3.78;71.64;100507.84;10241091;28;20537;-63
2023/01/30 07:30:13;;;;;;;21.80;8.45;;;;;;;3.83;71.30;100503.97;10241219;28;20129;-66
2023/01/30 07:35:15;;;;;;;20.25;9.65;;;;;;;3.88;71.43;100504.44;10239928;28;20047;-65
2023/01/30 07:40:18;;;;;;;19.50;8.35;;;;;;;3.88;71.66;100525.72;10240216;28;20079;-65
2023/01/30 07:45:19;;;;;;;19.73;8.27;;;;;;;3.88;71.63;100531.88;10239210;28;20051;-64
2023/01/30 07:50:21;;;;;;;14.88;6.65;;;;;;;3.86;71.52;100512.53;10240776;28;20110;-64
2023/01/30 07:55:23;;;;;;;18.58;8.05;;;;;;;3.90;71.92;100503.34;10241365;28;20055;-63
2023/01/30 08:00:24;;;;;;;20.50;9.75;;;;;;;3.92;72.23;100498.72;10241183;28;20079;-62
2023/01/30 08:05:26;;;;;;;19.58;9.63;;;;;;;3.94;71.99;100472.84;10242603;28;20055;-62
2023/01/30 08:10:27;;;;;;;25.50;10.50;;;;;;;3.86;72.56;100469.16;10243026;28;20059;-62
2023/01/30 08:15:30;;;;;;;18.20;8.93;;;;;;;3.81;73.07;100488.16;10242587;28;20067;-61
2023/01/30 08:20:32;;;;;;;19.42;8.88;;;;;;;3.82;73.37;100489.84;10242340;28;20458;-62
2023/01/30 08:25:36;;;;;;;18.73;9.25;;;;;;;3.80;73.32;100469.69;10240256;28;20075;-61
2023/01/30 08:30:40;;;;;;;24.08;10.65;;;;;;;3.83;73.74;100480.03;10242831;28;20103;-61
2023/01/30 08:35:41;;;;;;;19.77;9.20;;;;;;;3.83;73.82;100491.53;10239572;28;20047;-61
2023/01/30 08:40:42;;;;;;;19.58;9.38;;;;;;;3.88;73.71;100478.69;10235752;28;20059;-62
2023/01/30 08:45:44;;;;;;;22.35;8.75;;;;;;;4.02;73.60;100479.34;10240473;28;20078;-62
2023/01/30 08:50:45;;;;;;;22.92;8.85;;;;;;;3.92;74.06;100465.97;10240485;28;20429;-65
2023/01/30 08:55:53;;;;;;;19.70;8.98;;;;;;;3.94;74.11;100458.72;10241466;28;20047;-66
2023/01/30 09:00:54;;;;;;;16.55;8.10;;;;;;;3.98;74.58;100465.44;10241013;28;20055;-63
2023/01/30 09:05:56;;;;;;;17.02;7.40;;;;;;;3.98;74.68;100471.59;10242904;28;20051;-62
2023/01/30 09:11:03;;;;;;;18.42;7.20;;;;;;;4.04;74.68;100462.28;10240938;28;20051;-61
2023/01/30 09:16:05;;;;;;;17.83;8.50;;;;;;;4.09;74.39;100464.56;10221585;28;20491;-61
2023/01/30 09:21:08;;;;;;;20.08;8.35;;;;;;;4.13;74.72;100464.16;10241571;28;20047;-62
2023/01/30 09:26:10;;;;;;;17.92;7.75;;;;;;;4.16;74.40;100449.72;10239324;28;20134;-62
2023/01/30 09:31:11;;;;;;;14.90;7.28;;;;;;;4.12;74.77;100446.50;10237705;28;20106;-61
2023/01/30 09:36:13;;;;;;;17.60;7.68;;;;;;;4.20;74.75;100456.47;10238238;28;20067;-61
2023/01/30 09:41:51;;;;;;;18.02;7.65;;;;;;;4.22;74.60;100448.38;10233613;28;20079;-62
2023/01/30 09:47:07;;;;;;;11.73;5.72;;;;;;;4.29;74.61;100458.34;10233049;28;20055;-61
2023/01/30 09:52:30;;;;;;;11.88;5.80;;;;;;;4.31;74.89;100461.72;10235122;28;20070;-61
2023/01/30 09:57:32;;;;;;;13.45;6.50;;;;;;;4.37;74.79;100420.44;10236375;28;20114;-61
2023/01/30 10:02:58;;;;;;;10.73;4.65;;;;;;;4.44;74.69;100415.41;10235914;28;21023;-61
2023/01/30 10:08:29;;;;;;;11.73;5.43;;;;;;;4.41;75.01;100399.72;10238138;28;20123;-61
2023/01/30 10:13:57;;;;;;;9.32;4.20;;;;;;;4.50;74.72;100437.03;10237714;28;20075;-61
2023/01/30 10:19:46;;;;;;;7.60;4.00;;;;;;;4.65;74.79;100437.47;10236007;28;20043;-61
2023/01/30 10:24:47;;;;;;;;;;;;;;;4.79;74.96;100456.72;10168837;28;20526;-60
2023/01/30 10:29:55;;;;;;;8.05;3.47;;;;;;;4.88;74.94;100424.78;10235152;28;20020;-61
2023/01/30 10:35:05;;;;;;;7.60;3.53;;;;;;;4.93;74.91;100435.00;10214788;28;20059;-60
2023/01/30 10:40:31;;;;;;;5.93;2.97;;;;;;;4.98;74.54;100432.78;10210675;28;20075;-61
2023/01/30 10:45:53;;;;;;;4.78;2.40;;;;;;;5.05;74.65;100427.75;10234122;28;20118;-61
2023/01/30 10:51:02;;;;;;;5.43;2.60;;;;;;;5.17;75.21;100418.63;10233009;28;20048;-60
2023/01/30 10:56:19;;;;;;;4.35;2.25;;;;;;;5.35;75.13;100427.63;10237370;28;20051;-61
2023/01/30 11:01:36;;;;;;;3.37;1.77;;;;;;;5.43;75.29;100434.94;10243958;28;20055;-60
2023/01/30 11:06:38;;;;;;;3.17;1.77;;;;;;;5.54;74.58;100433.94;10245751;28;20747;-60
2023/01/30 11:11:53;;;;;;;3.83;1.73;;;;;;;5.63;74.30;100425.09;10245910;28;20070;-59
2023/01/30 11:16:56;;;;;;;2.65;1.25;;;;;;;5.78;74.81;100437.97;10243697;28;20066;-60
2023/01/30 11:22:03;;;;;;;7.75;1.50;;;;;;;5.84;74.18;100437.41;10247273;28;20148;-59
2023/01/30 11:27:15;;;;;;;2.43;1.23;;;;;;;5.91;74.02;100428.69;10242306;28;20127;-59
2023/01/30 11:32:28;;;;;;;3.78;1.38;;;;;;;6.06;73.63;100415.78;10243861;28;20143;-59
2023/01/30 11:37:32;;;;;;;8.50;1.50;;;;;;;6.19;73.55;100419.94;10244449;28;20065;-59
2023/01/30 11:42:33;;;;;;;4.20;1.60;;;;;;;6.25;73.48;100425.53;10239140;28;20138;-59
2023/01/30 11:47:35;;;;;;;2.60;1.30;;;;;;;6.46;73.45;100417.31;10242189;28;20070;-60
2023/01/30 11:52:37;;;;;;;2.97;1.23;;;;;;;6.59;73.66;100430.28;10243730;28;20139;-60
2023/01/30 11:57:44;;;;;;;1.70;0.90;;;;;;;6.74;73.24;100423.47;10240871;28;20063;-61
2023/01/30 12:02:47;;;;;;;1.67;1.15;;;;;;;6.90;73.43;100425.50;10239495;28;20047;-60
2023/01/30 12:07:50;;;;;;;4.60;1.48;;;;;;;7.02;73.65;100410.09;10240663;28;20110;-60
2023/01/30 12:12:56;;;;;;;1.40;1.02;;;;;;;7.15;73.36;100405.22;10272737;28;20047;-60
2023/01/30 12:18:09;;;;;;;1.50;0.73;;;;;;;7.37;72.03;100402.22;10294980;28;20031;-59
2023/01/30 12:23:29;;;;;;;1.50;0.60;;;;;;;7.37;71.95;100404.91;10292218;28;20070;-60
2023/01/30 12:28:54;;;;;;;1.20;0.52;;;;;;;7.46;72.01;100399.44;10288571;28;20035;-59
2023/01/30 12:33:55;;;;;;;2.50;0.70;;;;;;;7.61;71.52;100396.25;10276963;28;20735;-60
2023/01/30 12:39:20;;;;;;;1.88;0.60;;;;;;;7.68;71.66;100384.75;10282591;28;20047;-60
2023/01/30 12:44:21;;;;;;;3.17;1.58;;;;;;;7.80;71.19;100390.69;10240320;28;20121;-60
2023/01/30 12:50:05;;;;;;;3.33;0.95;;;;;;;7.91;71.05;100401.13;10288580;28;20047;-60
2023/01/30 12:55:44;;;;;;;0.88;0.40;;;;;;;7.86;70.74;100416.81;10241321;28;20443;-61
2023/01/30 13:01:01;;;;;;;3.72;0.60;;;;;;;7.83;70.26;100410.94;10282691;28;20035;-62
2023/01/30 13:06:19;;;;;;;3.67;1.13;;;;;;;7.86;69.81;100413.28;10291392;28;20297;-60
2023/01/30 13:11:49;;;;;;;2.83;0.68;;;;;;;8.04;69.28;100410.59;10281739;28;20054;-61
2023/01/30 13:17:05;;;;;;;3.42;0.50;;;;;;;8.11;69.63;100420.47;10269710;28;20075;-61
2023/01/30 13:22:19;;;;;;;3.95;0.47;;;;;;;8.27;69.01;100417.09;10247652;28;20098;-61
2023/01/30 13:27:23;;;;;;;3.15;0.50;;;;;;;8.42;68.95;100419.19;10271551;28;20044;-61
2023/01/30 13:32:40;;;;;;;6.85;1.00;;;;;;;8.43;68.05;100421.72;10244823;28;20055;-60
2023/01/30 13:37:45;;;;;;;2.60;0.47;;;;;;;8.33;67.66;100440.53;10258116;28;20066;-63
2023/01/30 13:43:10;;;;;;;4.60;1.20;;;;;;;8.42;66.94;100441.44;10258633;28;20043;-62
2023/01/30 13:48:27;;;;;;;3.25;0.85;;;;;;;8.50;66.74;100435.28;10281641;28;20038;-62
2023/01/30 13:53:38;;;;;;;2.33;0.50;;;;;;;8.49;66.57;100433.59;10280886;28;20067;-62
2023/01/30 13:58:56;;;;;;;3.25;0.60;;;;;;;8.46;66.83;100428.56;10288390;28;20118;-62
2023/01/30 14:04:17;;;;;;;;;;;;;;;8.51;67.34;100431.59;10272052;28;20039;-62
2023/01/30 14:09:28;;;;;;;4.65;0.98;;;;;;;8.56;66.86;100431.13;10290787;28;19937;-63
2023/01/30 14:14:32;;;;;;;2.97;0.73;;;;;;;8.64;66.25;100434.69;10291190;28;20031;-63
2023/01/30 14:19:40;;;;;;;4.88;1.45;;;;;;;8.66;66.26;100447.91;10263490;23;20051;-89
2023/01/30 14:24:42;;;;;;;5.70;0.88;;;;;;;8.70;66.18;100451.94;10226071;28;20107;-88
2023/01/30 14:29:51;;;;;;;7.80;1.10;;;;;;;8.79;65.73;100466.22;10241657;28;20083;-89
2023/01/30 14:35:02;;;;;;;3.83;0.57;;;;;;;8.91;65.08;100473.81;10231302;28;20119;-89
2023/01/30 14:40:26;;;;;;;6.80;0.73;;;;;;;9.15;64.88;100492.84;10240329;28;20041;-90
2023/01/30 14:45:55;;;;;;;5.78;0.90;;;;;;;9.09;63.48;100507.72;10202248;29;20056;-90
2023/01/30 14:51:19;;;;;;;8.55;0.98;;;;;;;9.13;62.23;100514.44;10190971;29;20056;-90
2023/01/30 14:56:55;;;;;;;2.40;0.40;;;;;;;9.09;60.32;100518.47;10211469;29;20154;-89
2023/01/30 15:02:11;;;;;;;4.75;1.30;;;;;;;9.10;59.09;100523.66;10201541;28;20058;-89
2023/01/30 15:07:19;;;;;;;10.00;0.70;;;;;;;9.08;57.38;100536.41;10195433;29;20058;-89
2023/01/30 15:12:41;;;;;;;6.32;0.30;;;;;;;9.05;57.82;100541.25;10189873;29;20056;-89
2023/01/30 15:17:58;;;;;;;7.22;0.60;;;;;;;9.00;56.27;100540.88;10193827;29;20052;-90
2023/01/30 15:23:28;;;;;;;8.73;0.90;;;;;;;8.97;56.21;100551.94;10194302;29;20052;-89
2023/01/30 15:28:51;;;;;;;4.90;0.80;;;;;;;8.94;56.38;100547.72;10183341;29;20056;-89
2023/01/30 15:33:56;;;;;;;5.45;0.60;;;;;;;8.82;55.08;100559.72;10173050;28;20065;-89
2023/01/30 15:39:01;;;;;;;6.07;0.70;;;;;;;8.74;55.53;100549.78;10177667;29;20533;-89
2023/01/30 15:44:11;;;;;;;10.98;1.25;;;;;;;8.65;56.04;100558.78;10165014;29;20479;-90
2023/01/30 15:49:28;;;;;;;4.18;1.10;;;;;;;8.61;55.99;100565.44;10176491;29;20082;-89
2023/01/30 15:54:30;;;;;;;8.57;0.93;;;;;;;8.50;55.65;100569.25;10200279;29;20450;-90
2023/01/30 15:59:37;;;;;;;4.43;0.30;;;;;;;8.44;56.50;100581.41;10204704;29;20100;-89
2023/01/30 16:04:38;;;;;;;3.47;0.40;;;;;;;8.36;57.22;100601.94;10173636;29;20513;-89
2023/01/30 16:09:40;;;;;;;6.30;1.02;;;;;;;8.32;56.94;100606.75;10184929;28;20078;-88
2023/01/30 16:14:50;;;;;;;7.82;1.98;;;;;;;8.24;57.55;100612.88;10172122;29;20057;-89
2023/01/30 16:20:06;;;;;;;;;;;;;;;;;;;;;
2023/01/30 16:25:18;;;;;;;10.05;1.20;;;;;;;8.22;57.44;100624.75;10191019;29;20085;-89
2023/01/30 16:30:27;;;;;;;9.35;1.48;;;;;;;8.24;57.82;100639.66;10203278;28;20086;-90
2023/01/30 16:35:32;;;;;;;6.45;1.00;;;;;;;8.21;57.74;100652.50;10197166;29;20116;-89
2023/01/30 16:41:29;;;;;;;12.37;0.87;;;;;;;8.19;58.23;100673.25;10185051;29;20134;-90
2023/01/30 16:46:45;;;;;;;7.05;1.35;;;;;;;8.24;58.21;100692.38;10144842;29;20115;-89
2023/01/30 16:51:49;;;;;;;5.70;1.02;;;;;;;8.23;59.06;100682.66;10180878;29;20040;-89
2023/01/30 16:56:54;;;;;;;7.68;1.15;;;;;;;8.27;59.16;100713.47;10204921;29;20129;-89
2023/01/30 17:01:57;;;;;;;11.68;1.10;;;;;;;8.31;58.87;100726.44;10180420;29;20059;-89
2023/01/30 17:07:04;;;;;;;10.60;1.67;;;;;;;8.31;59.18;100730.94;10204768;29;20055;-90
2023/01/30 17:12:35;;;;;;;12.73;2.80;;;;;;;8.36;59.41;100728.66;10234913;23;20130;-69
2023/01/30 17:17:40;;;;;;;9.88;3.05;;;;;;;8.42;59.81;100740.63;10253855;28;20146;-72
2023/01/30 17:22:44;;;;;;;8.02;1.77;;;;;;;8.36;59.90;100752.75;10258209;28;20146;-69
2023/01/30 17:27:45;;;;;;;12.82;2.17;;;;;;;8.28;60.15;100771.44;10254656;28;20073;-67
2023/01/30 17:32:49;;;;;;;13.23;2.20;;;;;;;8.20;60.30;100771.34;10256899;28;20051;-71
2023/01/30 17:37:51;;;;;;;13.35;1.67;;;;;;;8.17;60.51;100782.34;10271365;28;20059;-67
2023/01/30 17:43:06;;;;;;;8.95;1.88;;;;;;;8.14;60.59;100796.88;10308992;28;20046;-63
2023/01/30 17:48:10;;;;;;;9.93;2.28;;;;;;;8.10;60.84;100815.06;10304856;28;20110;-65
2023/01/30 17:53:11;;;;;;;12.18;2.60;;;;;;;8.09;60.15;100812.53;10288086;28;20055;-65
2023/01/30 17:58:16;;;;;;;12.88;3.08;;;;;;;8.14;60.27;100831.69;10286312;28;20051;-65
2023/01/30 18:03:18;;;;;;;8.18;1.25;;;;;;;7.95;60.30;100820.06;10279313;28;20397;-64
2023/01/30 18:08:19;;;;;;;10.55;1.48;;;;;;;7.93;60.31;100823.88;10259215;28;20082;-66
2023/01/30 18:13:21;;;;;;;12.80;1.30;;;;;;;8.02;60.36;100835.56;10283469;28;20109;-66
2023/01/30 18:18:22;;;;;;;8.43;2.15;;;;;;;7.88;60.53;100832.34;10295555;28;20054;-64
2023/01/30 18:23:23;;;;;;;10.10;2.25;;;;;;;7.85;60.10;100831.81;10280826;28;20051;-65
2023/01/30 18:28:25;;;;;;;11.80;1.70;;;;;;;7.89;60.46;100850.09;10284271;28;20052;-68
2023/01/30 18:33:26;;;;;;;13.95;3.40;;;;;;;7.91;60.65;100857.97;10302499;28;20043;-67
2023/01/30 18:38:29;;;;;;;11.50;1.95;;;;;;;7.90;60.25;100856.31;10294978;28;20051;-65
2023/01/30 18:43:30;;;;;;;8.20;1.52;;;;;;;7.91;60.91;100864.16;10286135;28;20058;-67
2023/01/30 18:48:33;;;;;;;13.07;2.35;;;;;;;7.87;60.50;100870.81;10280959;28;20058;-67
2023/01/30 18:53:34;;;;;;;12.45;1.38;;;;;;;7.87;60.56;100873.47;10286183;28;20110;-66
2023/01/30 18:58:36;;;;;;;8.65;1.40;;;;;;;7.84;59.64;100870.25;10306961;28;20142;-64
2023/01/30 19:03:37;;;;;;;18.73;2.15;;;;;;;7.87;59.98;100881.50;10304168;28;20051;-66
2023/01/30 19:08:40;;;;;;;10.63;0.98;;;;;;;7.80;59.20;100890.25;10281232;28;20082;-66
2023/01/30 19:13:41;;;;;;;7.00;1.10;;;;;;;7.88;59.75;100896.59;10282286;28;20050;-67
2023/01/30 19:18:43;;;;;;;11.90;1.77;;;;;;;7.93;58.90;100909.53;10290170;28;20106;-67
2023/01/30 19:23:44;;;;;;;10.48;1.17;;;;;;;7.91;59.40;100914.19;10298983;28;20553;-67
2023/01/30 19:28:47;;;;;;;8.60;1.52;;;;;;;7.88;59.78;100912.66;10303930;28;20118;-63
2023/01/30 19:33:54;;;;;;;5.55;2.08;;;;;;;7.94;59.35;100916.59;10307076;28;20054;-63
2023/01/30 19:38:55;;;;;;;10.75;1.48;;;;;;;8.05;59.00;100920.91;10298123;28;20058;-66
2023/01/30 19:44:02;;;;;;;14.02;3.53;;;;;;;7.97;59.32;100948.41;10293266;28;20051;-62
2023/01/30 19:49:03;;;;;;;12.88;2.65;;;;;;;7.97;59.72;100950.25;10287832;28;20055;-67
2023/01/30 19:54:08;;;;;;;12.60;1.88;;;;;;;7.83;60.05;100965.75;10268246;28;20059;-62
2023/01/30 19:59:10;;;;;;;12.48;1.63;;;;;;;7.74;61.14;100969.28;10267408;28;20340;-66
2023/01/30 20:04:11;;;;;;;8.23;1.95;;;;;;;7.65;61.31;100975.50;10273656;28;20053;-67
2023/01/30 20:09:14;;;;;;;8.65;1.77;;;;;;;7.72;60.82;100982.84;10268412;28;20062;-64
2023/01/30 20:14:16;;;;;;;11.85;1.92;;;;;;;7.80;61.07;100992.81;10286060;28;20086;-67
2023/01/30 20:19:18;;;;;;;8.10;1.25;;;;;;;7.76;60.52;100991.44;10283257;28;20055;-67
2023/01/30 20:24:20;;;;;;;10.88;1.52;;;;;;;7.87;60.56;100999.28;10292705;28;20047;-69
2023/01/30 20:29:21;;;;;;;13.88;1.63;;;;;;;7.82;61.19;100998.88;10277854;28;20110;-64
2023/01/30 20:34:23;;;;;;;9.30;1.63;;;;;;;7.81;61.13;100996.34;10263206;28;20047;-68
2023/01/30 20:39:24;;;;;;;12.27;1.70;;;;;;;7.78;61.44;101004.63;10290428;28;20059;-66
2023/01/30 20:44:26;;;;;;;18.23;2.08;;;;;;;7.80;61.78;101005.34;10279874;28;20042;-64
2023/01/30 20:49:27;;;;;;;15.07;1.58;;;;;;;7.81;61.45;101009.72;10291258;28;20105;-68
2023/01/30 20:54:29;;;;;;;14.07;2.30;;;;;;;7.82;61.10;101016.75;10268204;28;20054;-68
2023/01/30 20:59:30;;;;;;;11.05;1.25;;;;;;;7.74;61.90;101012.09;10260458;28;20673;-67
2023/01/30 21:04:32;;;;;;;14.80;2.20;;;;;;;7.85;61.82;101024.50;10286822;28;20435;-65
2023/01/30 21:09:33;;;;;;;13.75;2.25;;;;;;;7.89;61.30;101040.13;10254431;28;20082;-69
2023/01/30 21:14:34;;;;;;;10.05;1.95;;;;;;;7.92;61.29;101041.72;10305262;28;20099;-62
2023/01/30 21:19:36;;;;;;;16.35;4.22;;;;;;;7.98;60.74;101054.53;10301187;28;20047;-67
2023/01/30 21:24:43;;;;;;;16.52;1.77;;;;;;;8.05;60.93;101057.47;10289816;28;20094;-65
2023/01/30 21:29:44;;;;;;;12.20;2.15;;;;;;;8.02;61.04;101066.63;10301823;28;20043;-63
2023/01/30 21:34:45;;;;;;;9.10;1.55;;;;;;;7.93;60.76;101071.00;10260305;28;20520;-67
2023/01/30 21:45:07;;;;;;;14.35;1.73;;;;;;;7.86;61.04;101091.28;10261240;28;20152;-62
2023/01/30 21:50:09;;;;;;;13.32;2.28;;;;;;;7.73;61.11;101096.91;10263444;28;20053;-67
2023/01/30 21:55:10;;;;;;;16.98;2.17;;;;;;;7.71;61.15;101098.03;10279019;28;20047;-64
2023/01/30 22:00:12;;;;;;;8.27;1.35;;;;;;;7.62;61.66;101105.06;10271471;28;20725;-67
2023/01/30 22:05:14;;;;;;;12.00;1.45;;;;;;;7.65;62.13;101110.13;10271627;28;20051;-66
2023/01/30 22:10:15;;;;;;;11.52;1.55;;;;;;;7.64;62.15;101110.25;10267876;28;20102;-67
2023/01/30 22:15:21;;;;;;;7.00;1.42;;;;;;;7.54;62.16;101128.97;10264808;28;20138;-64
2023/01/30 22:20:23;;;;;;;9.65;0.90;;;;;;;7.46;62.67;101123.47;10252243;28;20138;-65
2023/01/30 22:25:24;;;;;;;15.20;1.85;;;;;;;7.35;62.74;101135.97;10284822;28;20062;-65
2023/01/30 22:30:26;;;;;;;5.93;1.98;;;;;;;7.38;62.96;101150.03;10247042;28;20056;-66
2023/01/30 22:35:27;;;;;;;14.20;1.30;;;;;;;7.34;62.86;101160.16;10259066;28;20051;-63
2023/01/30 22:40:28;;;;;;;11.57;1.17;;;;;;;7.43;62.91;101154.00;10260244;28;20113;-67
2023/01/30 22:45:33;;;;;;;15.02;1.75;;;;;;;7.48;62.45;101156.28;10264800;28;20502;-64
2023/01/30 22:50:35;;;;;;;8.18;1.23;;;;;;;7.44;62.71;101157.53;10255659;28;20047;-65
2023/01/30 22:55:37;;;;;;;9.55;2.10;;;;;;;7.44;62.55;101155.69;10272758;28;20058;-66
2023/01/30 23:00:38;;;;;;;8.35;0.98;;;;;;;7.50;62.74;101156.97;10268915;28;20048;-65
2023/01/30 23:05:40;;;;;;;11.00;1.10;;;;;;;7.43;63.03;101148.66;10273971;28;20082;-64
2023/01/30 23:10:42;;;;;;;11.93;1.40;;;;;;;7.43;62.88;101153.19;10255632;28;20145;-66
2023/01/30 23:15:45;;;;;;;12.07;1.63;;;;;;;7.39;62.90;101157.09;10258278;28;20054;-64
2023/01/30 23:20:47;;;;;;;11.00;1.35;;;;;;;7.35;62.95;101160.03;10273012;28;20059;-66
2023/01/30 23:25:48;;;;;;;9.55;1.45;;;;;;;7.30;62.86;101159.56;10274226;28;20046;-67
2023/01/30 23:30:49;;;;;;;4.93;0.70;;;;;;;7.27;63.37;101167.88;10265847;28;20062;-65
2023/01/30 23:35:51;;;;;;;8.52;1.23;;;;;;;7.19;62.89;101172.19;10264506;28;20129;-65
2023/01/30 23:40:52;;;;;;;12.50;1.08;;;;;;;7.20;63.37;101164.03;10264525;28;20050;-67
2023/01/30 23:45:54;;;;;;;10.77;1.77;;;;;;;7.25;63.23;101172.53;10268313;28;20084;-67